createdAt,value
2018-08-30T00:00:36.880Z,13.20
2018-08-30T00:03:09.196Z,12.60
2018-08-30T00:05:41.702Z,11.40
2018-08-30T00:08:14.875Z,10.50
2018-08-30T00:10:47.152Z,10.50
2018-08-30T00:13:19.799Z,10.20
2018-08-30T00:15:52.649Z,10.10
2018-08-30T00:18:25.173Z,10.27
2018-08-30T00:20:57.399Z,10.23
2018-08-30T00:23:29.744Z,10.37
2018-08-30T00:26:01.842Z,8.90
2018-08-30T00:28:34.133Z,8.87
2018-08-30T00:31:06.161Z,9.50
2018-08-30T00:33:38.626Z,10.03
2018-08-30T00:36:10.925Z,13.07
2018-08-30T00:38:43.176Z,11.20
2018-08-30T00:41:15.300Z,12.30
2018-08-30T00:43:47.486Z,14.47
2018-08-30T00:46:19.870Z,16.83
2018-08-30T00:48:52.515Z,16.00
2018-08-30T00:51:25.066Z,15.80
2018-08-30T00:53:57.312Z,17.70
2018-08-30T00:56:29.561Z,16.43
2018-08-30T00:59:01.833Z,16.53
2018-08-30T01:01:33.820Z,17.50
2018-08-30T01:04:06.205Z,16.77
2018-08-30T01:06:38.120Z,14.63
2018-08-30T01:09:10.796Z,14.43
2018-08-30T01:11:42.990Z,13.77
2018-08-30T01:14:16.094Z,11.60
2018-08-30T01:16:48.066Z,11.23
2018-08-30T01:19:20.229Z,11.27
2018-08-30T01:21:52.219Z,9.80
2018-08-30T01:24:24.652Z,9.63
2018-08-30T01:26:57.007Z,10.10
2018-08-30T01:29:29.243Z,10.33
2018-08-30T01:32:01.494Z,9.73
2018-08-30T01:34:33.941Z,9.67
2018-08-30T01:37:07.212Z,10.43
2018-08-30T01:39:39.367Z,9.67
2018-08-30T01:42:11.621Z,13.53
2018-08-30T01:44:43.626Z,10.53
2018-08-30T01:47:15.745Z,14.83
2018-08-30T01:49:48.165Z,12.43
2018-08-30T01:52:20.391Z,12.07
2018-08-30T01:54:52.872Z,12.03
2018-08-30T01:57:24.858Z,16.70
2018-08-30T01:59:57.127Z,25.27
2018-08-30T02:02:29.297Z,20.57
2018-08-30T03:19:24.079Z,29.40
2018-08-30T03:21:57.346Z,28.30
2018-08-30T03:58:36.844Z,14.83
2018-08-30T04:01:09.831Z,15.90
2018-08-30T04:03:42.770Z,21.43
2018-08-30T04:06:16.016Z,20.80
2018-08-30T04:08:49.252Z,21.90
2018-08-30T04:11:22.657Z,21.47
2018-08-30T04:13:55.795Z,23.57
2018-08-30T04:16:29.220Z,22.73
2018-08-30T04:19:07.090Z,22.60
2018-08-30T04:21:40.676Z,21.73
2018-08-30T04:24:14.032Z,20.53
2018-08-30T04:26:47.315Z,17.10
2018-08-30T04:29:20.473Z,21.17
2018-08-30T04:31:53.977Z,22.67
2018-08-30T04:34:27.101Z,24.73
2018-08-30T04:37:00.533Z,26.23
2018-08-30T04:39:34.137Z,23.23
2018-08-30T04:42:07.438Z,21.17
2018-08-30T04:44:40.795Z,27.20
2018-08-30T04:47:14.139Z,26.30
2018-08-30T04:49:47.241Z,26.03
2018-08-30T04:52:20.765Z,26.07
2018-08-30T04:54:53.850Z,23.97
2018-08-30T04:57:27.625Z,27.83
2018-08-30T05:00:01.135Z,26.70
2018-08-30T05:02:34.644Z,26.70
2018-08-30T05:05:07.957Z,23.67
2018-08-30T05:07:41.779Z,30.67
2018-08-30T05:10:15.091Z,26.77
2018-08-30T05:12:48.330Z,21.03
2018-08-30T05:15:22.122Z,21.73
2018-08-30T05:17:55.524Z,19.07
2018-08-30T05:20:28.620Z,20.67
2018-08-30T05:23:01.928Z,20.20
2018-08-30T05:25:35.261Z,20.33
2018-08-30T05:28:08.563Z,20.13
2018-08-30T05:30:42.117Z,20.10
2018-08-30T05:33:15.705Z,20.53
2018-08-30T05:35:49.402Z,21.97
2018-08-30T05:38:22.793Z,23.53
2018-08-30T05:40:55.903Z,21.07
2018-08-30T05:43:29.140Z,21.70
2018-08-30T05:46:02.421Z,21.00
2018-08-30T05:48:35.736Z,19.87
2018-08-30T05:51:09.365Z,18.23
2018-08-30T05:53:42.649Z,19.57
2018-08-30T05:56:15.903Z,17.47
2018-08-30T05:58:49.594Z,17.80
2018-08-30T06:01:23.522Z,17.13
2018-08-30T06:03:56.993Z,18.80
2018-08-30T06:06:30.241Z,16.93
2018-08-30T06:09:03.582Z,16.97
2018-08-30T06:11:36.729Z,19.37
2018-08-30T06:14:10.181Z,17.77
2018-08-30T06:16:43.266Z,15.13
2018-08-30T06:19:16.667Z,16.93
2018-08-30T06:21:49.883Z,19.57
2018-08-30T06:24:23.254Z,17.40
2018-08-30T06:26:56.692Z,15.90
2018-08-30T06:29:30.092Z,14.37
2018-08-30T06:32:03.775Z,13.30
2018-08-30T06:34:37.490Z,11.60
2018-08-30T06:37:11.094Z,9.73
2018-08-30T06:39:44.271Z,9.57
2018-08-30T06:42:17.430Z,10.27
2018-08-30T06:44:51.243Z,10.40
2018-08-30T06:47:24.613Z,9.37
2018-08-30T06:49:58.712Z,9.63
2018-08-30T06:52:31.854Z,6.90
2018-08-30T06:55:05.125Z,6.53
2018-08-30T06:57:38.328Z,6.57
2018-08-30T07:00:11.952Z,7.30
2018-08-30T07:02:45.376Z,6.70
2018-08-30T07:05:19.240Z,6.10
2018-08-30T07:07:53.695Z,5.43
2018-08-30T07:10:27.258Z,5.47
2018-08-30T07:13:00.422Z,4.70
2018-08-30T07:15:34.148Z,4.40
2018-08-30T07:18:07.264Z,4.53
2018-08-30T07:20:40.558Z,4.00
2018-08-30T07:23:13.738Z,4.10
2018-08-30T07:25:46.948Z,3.70
2018-08-30T07:28:20.385Z,3.67
2018-08-30T07:30:53.785Z,3.93
2018-08-30T07:33:26.948Z,3.30
2018-08-30T07:36:00.290Z,3.50
2018-08-30T07:38:33.665Z,3.90
2018-08-30T07:41:07.095Z,3.73
2018-08-30T07:43:40.262Z,3.30
2018-08-30T07:46:13.530Z,3.30
2018-08-30T07:48:46.819Z,3.23
2018-08-30T07:51:20.642Z,3.17
2018-08-30T07:53:53.728Z,3.30
2018-08-30T07:56:27.030Z,3.23
2018-08-30T07:59:00.223Z,3.13
2018-08-30T08:01:33.618Z,3.07
2018-08-30T08:04:06.715Z,3.10
2018-08-30T08:06:40.123Z,2.83
2018-08-30T08:09:13.634Z,3.37
2018-08-30T08:11:47.350Z,3.27
2018-08-30T08:14:20.760Z,4.20
2018-08-30T08:16:54.037Z,3.30
2018-08-30T08:19:27.148Z,3.97
2018-08-30T08:22:00.545Z,3.53
2018-08-30T08:24:33.826Z,3.90
2018-08-30T08:27:07.511Z,4.10
2018-08-30T08:29:41.709Z,3.67
2018-08-30T08:32:15.057Z,4.10
2018-08-30T08:34:48.290Z,3.90
2018-08-30T08:37:21.559Z,4.07
2018-08-30T08:39:54.729Z,3.90
2018-08-30T08:42:28.358Z,3.80
2018-08-30T08:45:01.467Z,3.87
2018-08-30T08:47:34.867Z,4.30
2018-08-30T08:50:08.221Z,4.03
2018-08-30T08:52:42.210Z,4.13
2018-08-30T08:55:15.645Z,4.73
2018-08-30T08:57:49.338Z,4.10
2018-08-30T09:00:22.510Z,4.73
2018-08-30T09:02:55.870Z,4.70
2018-08-30T09:05:29.021Z,4.50
2018-08-30T09:08:02.304Z,5.00
2018-08-30T09:10:36.041Z,4.60
2018-08-30T09:13:09.242Z,4.70
2018-08-30T09:15:42.582Z,5.33
2018-08-30T09:18:15.919Z,6.63
2018-08-30T09:20:49.056Z,6.13
2018-08-30T09:23:22.422Z,6.47
2018-08-30T09:25:55.608Z,6.40
2018-08-30T09:28:29.048Z,6.33
2018-08-30T09:31:02.645Z,6.67
2018-08-30T09:33:36.290Z,6.97
2018-08-30T09:36:09.461Z,6.67
2018-08-30T09:38:43.179Z,6.27
2018-08-30T09:41:16.271Z,6.20
2018-08-30T09:43:49.760Z,6.60
2018-08-30T09:46:22.979Z,8.17
2018-08-30T09:48:56.580Z,5.90
2018-08-30T09:51:29.778Z,6.77
2018-08-30T09:54:03.780Z,7.47
2018-08-30T09:56:36.945Z,8.10
2018-08-30T09:59:10.478Z,6.50
2018-08-30T10:01:47.842Z,7.37
2018-08-30T10:04:22.324Z,7.93
2018-08-30T10:06:55.579Z,9.00
2018-08-30T10:09:29.215Z,10.40
2018-08-30T10:12:02.550Z,10.87
2018-08-30T10:14:35.806Z,10.70
2018-08-30T10:17:09.044Z,11.63
2018-08-30T10:19:42.176Z,10.73
2018-08-30T10:22:15.829Z,12.27
2018-08-30T10:24:49.399Z,12.13
2018-08-30T10:27:22.655Z,11.73
2018-08-30T10:29:55.881Z,12.00
2018-08-30T10:32:29.600Z,13.60
2018-08-30T10:35:02.816Z,13.77
2018-08-30T10:37:36.180Z,15.13
2018-08-30T10:40:09.861Z,15.00
2018-08-30T10:42:43.524Z,12.87
2018-08-30T10:45:17.218Z,13.50
2018-08-30T10:47:50.280Z,13.17
2018-08-30T10:50:24.604Z,12.03
2018-08-30T10:52:57.866Z,13.60
2018-08-30T10:55:31.384Z,11.33
2018-08-30T10:58:04.544Z,11.43
2018-08-30T11:00:39.650Z,10.77
2018-08-30T11:03:13.446Z,10.73
2018-08-30T11:05:46.880Z,10.57
2018-08-30T11:08:20.532Z,10.87
2018-08-30T11:10:53.787Z,13.17
2018-08-30T11:13:27.257Z,12.70
2018-08-30T11:16:00.957Z,12.83
2018-08-30T11:18:34.195Z,11.87
2018-08-30T11:21:07.366Z,11.00
2018-08-30T11:23:40.942Z,12.00
2018-08-30T11:26:14.404Z,11.80
2018-08-30T11:28:48.166Z,11.40
2018-08-30T11:31:21.309Z,11.33
2018-08-30T11:33:54.499Z,12.43
2018-08-30T11:36:28.310Z,12.53
2018-08-30T11:39:01.572Z,12.30
2018-08-30T11:41:34.968Z,13.30
2018-08-30T11:44:08.352Z,14.37
2018-08-30T11:46:41.793Z,15.43
2018-08-30T11:49:14.972Z,13.80
2018-08-30T11:51:48.672Z,15.30
2018-08-30T11:54:22.083Z,16.20
2018-08-30T11:56:55.442Z,17.53
2018-08-30T11:59:28.571Z,17.77
2018-08-30T12:02:01.897Z,18.47
2018-08-30T12:04:35.413Z,18.33
2018-08-30T12:07:08.778Z,22.33
2018-08-30T12:09:42.293Z,17.07
2018-08-30T12:12:15.642Z,19.37
2018-08-30T12:14:48.836Z,19.50
2018-08-30T12:17:22.387Z,19.30
2018-08-30T12:19:55.545Z,17.00
2018-08-30T12:22:28.774Z,17.07
2018-08-30T12:25:02.127Z,117.53
2018-08-30T12:27:35.704Z,16.53
2018-08-30T12:30:09.089Z,16.50
2018-08-30T12:32:42.584Z,21.60
2018-08-30T12:35:15.888Z,19.80
2018-08-30T12:37:49.669Z,18.70
2018-08-30T12:40:23.040Z,20.80
2018-08-30T12:42:56.734Z,21.43
2018-08-30T12:45:30.207Z,20.63
2018-08-30T12:48:03.615Z,20.33
2018-08-30T12:50:37.145Z,20.37
2018-08-30T12:53:11.235Z,20.50
2018-08-30T12:55:44.729Z,20.73
2018-08-30T12:58:18.327Z,17.63
2018-08-30T13:00:52.288Z,17.57
2018-08-30T13:03:25.778Z,17.50
2018-08-30T13:05:59.547Z,17.80
2018-08-30T13:08:33.484Z,17.10
2018-08-30T13:11:07.594Z,18.13
2018-08-30T13:13:40.921Z,19.83
2018-08-30T13:16:14.255Z,17.97
2018-08-30T13:18:47.993Z,17.23
2018-08-30T13:21:21.505Z,19.30
2018-08-30T13:23:55.198Z,17.60
2018-08-30T13:26:28.581Z,16.67
2018-08-30T13:29:02.127Z,15.37
2018-08-30T13:31:35.838Z,14.73
2018-08-30T13:34:09.640Z,15.43
2018-08-30T13:36:43.538Z,16.60
2018-08-30T13:39:17.513Z,15.70
2018-08-30T13:41:51.826Z,16.33
2018-08-30T13:44:26.063Z,16.70
2018-08-30T13:47:00.098Z,15.23
2018-08-30T13:49:33.261Z,15.77
2018-08-30T13:52:07.136Z,12.83
2018-08-30T13:54:40.561Z,13.97
2018-08-30T13:57:14.675Z,12.60
2018-08-30T13:59:48.860Z,15.33
2018-08-30T14:02:22.272Z,16.00
2018-08-30T14:04:55.443Z,14.27
2018-08-30T14:07:29.383Z,14.13
2018-08-30T14:10:03.265Z,13.10
2018-08-30T14:12:36.576Z,13.10
2018-08-30T14:15:10.461Z,12.00
2018-08-30T14:17:44.596Z,11.60
2018-08-30T14:20:18.757Z,10.37
2018-08-30T14:22:52.528Z,9.87
2018-08-30T14:25:26.275Z,9.87
2018-08-30T14:28:00.162Z,10.73
2018-08-30T14:30:33.644Z,10.63
2018-08-30T14:33:07.285Z,15.57
2018-08-30T14:35:40.795Z,39.00
2018-08-30T14:38:14.223Z,18.17
2018-08-30T14:40:47.737Z,17.40
2018-08-30T14:43:21.420Z,11.30
2018-08-30T14:45:55.739Z,12.10
2018-08-30T14:48:30.628Z,7.80
2018-08-30T14:51:04.348Z,7.27
2018-08-30T14:53:38.142Z,6.53
2018-08-30T14:56:11.404Z,6.37
2018-08-30T14:58:45.313Z,8.43
2018-08-30T15:01:19.539Z,6.23
2018-08-30T15:03:53.532Z,6.83
2018-08-30T15:06:28.028Z,7.63
2018-08-30T15:09:01.797Z,7.07
2018-08-30T15:11:35.412Z,7.83
2018-08-30T15:14:08.968Z,7.47
2018-08-30T15:16:44.319Z,5.53
2018-08-30T15:19:18.830Z,7.67
2018-08-30T15:21:52.308Z,5.50
2018-08-30T15:24:26.074Z,5.10
2018-08-30T15:27:00.117Z,14.13
2018-08-30T15:29:33.802Z,5.63
2018-08-30T15:32:07.503Z,4.17
2018-08-30T15:34:42.190Z,5.87
2018-08-30T15:37:15.887Z,8.47
2018-08-30T15:39:49.684Z,7.30
2018-08-30T15:42:23.343Z,5.60
2018-08-30T15:44:57.659Z,18.27
2018-08-30T15:47:31.154Z,5.57
2018-08-30T15:50:04.899Z,9.07
2018-08-30T15:52:38.416Z,14.07
2018-08-30T15:55:12.968Z,5.90
2018-08-30T15:57:46.485Z,11.10
2018-08-30T16:00:20.470Z,7.40
2018-08-30T16:02:54.320Z,6.35
2018-08-30T16:05:30.519Z,16.45
2018-08-30T16:08:03.783Z,7.87
2018-08-30T16:10:37.419Z,4.53
2018-08-30T16:13:10.723Z,5.62
2018-08-30T16:15:44.698Z,7.37
2018-08-30T16:18:18.952Z,7.42
2018-08-30T16:20:53.158Z,4.40
2018-08-30T16:23:31.594Z,5.45
2018-08-30T16:26:05.096Z,3.70
2018-08-30T16:28:38.783Z,4.58
2018-08-30T16:31:12.658Z,4.65
2018-08-30T16:33:47.317Z,6.12
2018-08-30T16:36:20.979Z,6.45
2018-08-30T16:38:54.164Z,7.62
2018-08-30T16:41:27.849Z,9.60
2018-08-30T16:44:01.732Z,12.63
2018-08-30T16:46:35.188Z,8.33
2018-08-30T16:49:08.992Z,4.55
2018-08-30T16:51:43.714Z,3.80
2018-08-30T16:54:17.340Z,5.20
2018-08-30T16:56:51.384Z,4.85
2018-08-30T16:59:25.573Z,4.90
2018-08-30T17:01:59.595Z,4.40
2018-08-30T17:04:33.738Z,2.92
2018-08-30T17:07:07.286Z,5.95
2018-08-30T17:09:40.868Z,3.65
2018-08-30T17:12:14.823Z,4.83
2018-08-30T17:14:48.266Z,3.62
2018-08-30T17:17:21.670Z,3.12
2018-08-30T17:19:55.193Z,10.70
2018-08-30T17:22:29.343Z,4.72
2018-08-30T17:25:03.709Z,5.22
2018-08-30T17:27:37.401Z,3.10
2018-08-30T17:30:10.915Z,3.40
2018-08-30T17:32:44.210Z,3.75
2018-08-30T17:35:18.328Z,4.15
2018-08-30T17:37:51.991Z,4.42
2018-08-30T17:40:26.346Z,6.50
2018-08-30T17:43:01.463Z,5.03
2018-08-30T17:45:36.282Z,4.80
2018-08-30T17:48:10.219Z,3.65
2018-08-30T17:50:44.740Z,18.73
2018-08-30T17:53:18.824Z,3.65
2018-08-30T17:55:53.783Z,3.60
2018-08-30T17:58:28.390Z,3.10
2018-08-30T18:01:04.082Z,9.28
2018-08-30T18:03:37.660Z,4.40
2018-08-30T18:06:12.938Z,5.42
2018-08-30T18:08:46.180Z,3.67
2018-08-30T18:11:20.025Z,3.47
2018-08-30T18:13:54.094Z,4.05
2018-08-30T18:16:27.619Z,4.47
2018-08-30T18:19:02.242Z,6.72
2018-08-30T18:21:35.794Z,5.03
2018-08-30T18:24:10.934Z,3.55
2018-08-30T18:26:44.310Z,4.75
2018-08-30T18:29:18.448Z,8.65
2018-08-30T18:31:51.678Z,3.90
2018-08-30T18:34:25.360Z,4.30
2018-08-30T18:36:58.782Z,4.47
2018-08-30T18:39:35.941Z,4.50
2018-08-30T18:42:09.544Z,10.08
2018-08-30T18:44:43.582Z,5.40
2018-08-30T18:47:17.828Z,3.47
2018-08-30T18:49:51.247Z,5.85
2018-08-30T18:52:24.516Z,5.28
2018-08-30T18:54:59.993Z,4.87
2018-08-30T18:57:36.341Z,4.42
2018-08-30T19:00:10.564Z,7.10
2018-08-30T19:02:43.937Z,5.55
2018-08-30T19:05:18.344Z,6.83
2018-08-30T19:07:51.730Z,3.50
2018-08-30T19:10:24.978Z,3.65
2018-08-30T19:12:59.393Z,5.05
2018-08-30T19:15:37.501Z,6.03
2018-08-30T19:18:24.969Z,5.70
2018-08-30T19:20:58.632Z,4.92
2018-08-30T19:23:32.227Z,5.67
2018-08-30T19:26:06.386Z,5.85
2018-08-30T19:28:40.085Z,7.45
2018-08-30T19:31:13.846Z,4.58
2018-08-30T19:33:48.774Z,5.70
2018-08-30T19:36:25.999Z,4.78
2018-08-30T19:39:02.113Z,4.85
2018-08-30T19:41:37.710Z,5.55
2018-08-30T19:44:11.503Z,6.47
2018-08-30T19:46:44.770Z,4.37
2018-08-30T19:49:18.522Z,5.25
2018-08-30T19:51:51.753Z,6.03
2018-08-30T19:54:26.131Z,6.33
2018-08-30T19:57:02.536Z,5.33
2018-08-30T19:59:37.471Z,5.25
2018-08-30T20:02:11.360Z,4.70
2018-08-30T20:04:44.717Z,5.05
2018-08-30T20:07:18.889Z,5.80
2018-08-30T20:09:53.339Z,5.47
2018-08-30T20:12:28.332Z,5.78
2018-08-30T20:15:01.944Z,8.23
2018-08-30T20:17:38.140Z,3.90
2018-08-30T20:20:13.098Z,7.05
2018-08-30T20:22:47.290Z,4.80
2018-08-30T20:25:20.786Z,4.42
2018-08-30T20:27:54.459Z,7.55
2018-08-30T20:30:28.193Z,5.37
2018-08-30T20:33:02.999Z,8.18
2018-08-30T20:38:26.410Z,6.20
2018-08-30T20:41:00.234Z,7.53
2018-08-30T20:43:33.615Z,8.23
2018-08-30T20:46:07.662Z,6.15
2018-08-30T20:48:43.281Z,5.87
2018-08-30T20:51:16.777Z,8.10
2018-08-30T20:53:51.217Z,5.50
2018-08-30T20:56:25.105Z,7.30
2018-08-30T20:58:58.597Z,4.28
2018-08-30T21:01:31.913Z,4.47
2018-08-30T21:04:05.969Z,5.83
2018-08-30T21:06:39.779Z,6.28
2018-08-30T21:09:15.499Z,7.60
2018-08-30T21:11:50.078Z,5.17
2018-08-30T21:14:24.714Z,4.47
2018-08-30T21:16:58.818Z,6.33
2018-08-30T21:19:33.750Z,8.13
2018-08-30T21:22:08.386Z,10.03
2018-08-30T21:24:42.526Z,6.30
2018-08-30T21:27:16.340Z,6.73
2018-08-30T21:30:01.259Z,6.27
2018-08-30T21:32:34.539Z,6.77
2018-08-30T21:35:08.255Z,5.67
2018-08-30T21:37:41.683Z,5.67
2018-08-30T21:40:15.347Z,5.33
2018-08-30T21:42:48.739Z,5.30
2018-08-30T21:45:23.351Z,7.47
2018-08-30T21:47:57.832Z,7.67
2018-08-30T21:50:31.424Z,7.13
2018-08-30T21:53:06.227Z,6.27
2018-08-30T21:55:39.881Z,6.93
2018-08-30T21:58:14.494Z,6.70
2018-08-30T22:00:48.159Z,6.60
2018-08-30T22:03:22.575Z,6.90
2018-08-30T22:05:56.322Z,6.00
2018-08-30T22:08:29.859Z,6.13
2018-08-30T22:11:03.222Z,6.50
2018-08-30T22:13:37.496Z,6.20
2018-08-30T22:16:12.841Z,6.80
2018-08-30T22:18:46.574Z,6.77
2018-08-30T22:21:20.578Z,7.30
2018-08-30T22:23:54.135Z,7.17
2018-08-30T22:26:28.013Z,6.43
2018-08-30T22:29:02.467Z,7.33
2018-08-30T22:31:36.909Z,7.87
2018-08-30T22:34:10.053Z,7.77
2018-08-30T22:36:43.718Z,7.50
2018-08-30T22:39:18.016Z,8.73
2018-08-30T22:41:51.461Z,7.73
2018-08-30T22:44:24.880Z,9.57
2018-08-30T22:46:58.624Z,9.30
2018-08-30T22:49:32.197Z,7.97
2018-08-30T22:52:06.673Z,6.77
2018-08-30T22:54:40.364Z,7.60
2018-08-30T22:57:14.365Z,9.10
2018-08-30T22:59:48.676Z,8.30
2018-08-30T23:02:22.493Z,8.70
2018-08-30T23:04:56.776Z,10.03
2018-08-30T23:07:30.294Z,10.60
2018-08-30T23:10:04.109Z,10.70
2018-08-30T23:12:37.758Z,10.47
2018-08-30T23:15:11.415Z,11.23
2018-08-30T23:17:44.877Z,12.30
2018-08-30T23:20:18.894Z,12.50
2018-08-30T23:22:52.543Z,11.43
2018-08-30T23:25:27.265Z,12.73
2018-08-30T23:28:00.492Z,13.27
2018-08-30T23:30:34.411Z,11.90
2018-08-30T23:33:07.869Z,10.83
2018-08-30T23:35:41.129Z,11.57
2018-08-30T23:38:15.594Z,11.37
2018-08-30T23:40:49.714Z,12.70
2018-08-30T23:43:23.054Z,12.60
2018-08-30T23:45:57.534Z,12.93
2018-08-30T23:48:30.875Z,13.13
2018-08-30T23:51:04.581Z,15.00
2018-08-30T23:53:38.193Z,15.30
2018-08-30T23:56:11.891Z,15.87
2018-08-30T23:58:53.716Z,16.07
